Time;durP1;ratioP1;P1;durP2;ratioP2;P2;SDS_P1;SDS_P2;PMS_P1;PMS_P2;Temp;Humidity;BMP_temperature;BMP_pressure;BME280_temperature;BME280_humidity;BME280_pressure;Samples;Min_cycle;Max_cycle;Signal;HPM_P1;HPM_P2
2022/08/20 00:00:35;;;;;;;0.70;0.30;;;19.60;99.90;;;;;;5087125;28;20052;-84
2022/08/20 00:03:32;;;;;;;1.25;0.32;;;19.60;99.90;;;;;;5088990;28;20051;-85
2022/08/20 00:06:08;;;;;;;0.80;0.38;;;19.50;99.90;;;;;;5074896;28;20033;-84
2022/08/20 00:08:34;;;;;;;1.20;0.38;;;19.40;99.90;;;;;;5089267;28;20093;-84
2022/08/20 00:11:02;;;;;;;0.73;0.32;;;19.40;99.90;;;;;;5085347;28;20013;-84
2022/08/20 00:13:35;;;;;;;0.63;0.30;;;19.30;99.90;;;;;;5085384;28;20024;-85
2022/08/20 00:16:02;;;;;;;0.65;0.30;;;19.30;99.90;;;;;;5084671;28;20043;-84
2022/08/20 00:18:28;;;;;;;1.15;0.50;;;19.20;99.90;;;;;;5090839;22;20072;-85
2022/08/20 00:20:55;;;;;;;1.58;0.40;;;19.20;99.90;;;;;;5071236;28;20027;-86
2022/08/20 00:23:22;;;;;;;0.90;0.22;;;19.20;99.90;;;;;;5073758;28;20510;-86
2022/08/20 00:25:48;;;;;;;0.90;0.30;;;19.10;99.90;;;;;;5069738;28;20024;-86
2022/08/20 00:28:15;;;;;;;0.60;0.20;;;19.10;99.90;;;;;;5079093;28;20027;-86
2022/08/20 00:30:42;;;;;;;0.77;0.30;;;19.10;99.90;;;;;;5107721;22;20040;-83
2022/08/20 00:33:12;;;;;;;0.75;0.28;;;19.10;99.90;;;;;;5068984;28;20139;-83
2022/08/20 00:35:41;;;;;;;1.67;0.20;;;19.00;99.90;;;;;;5085791;28;20024;-84
2022/08/20 00:38:06;;;;;;;1.13;0.40;;;19.00;99.90;;;;;;5087044;28;20024;-84
2022/08/20 00:40:46;;;;;;;0.52;0.30;;;19.00;99.90;;;;;;5064157;28;20032;-84
2022/08/20 00:43:41;;;;;;;0.85;0.30;;;19.00;99.90;;;;;;5086759;28;20481;-83
2022/08/20 00:46:12;;;;;;;0.88;0.30;;;19.00;99.90;;;;;;5079237;28;20039;-85
2022/08/20 00:48:41;;;;;;;1.38;0.30;;;18.90;99.90;;;;;;5088054;28;20051;-84
2022/08/20 00:51:08;;;;;;;1.00;0.30;;;18.90;99.90;;;;;;5071958;28;20040;-83
2022/08/20 00:53:36;;;;;;;1.30;0.30;;;18.90;99.90;;;;;;5070229;28;20020;-84
2022/08/20 00:56:03;;;;;;;1.15;0.40;;;18.90;99.90;;;;;;5086697;28;20024;-84
2022/08/20 00:58:29;;;;;;;0.60;0.30;;;18.90;99.90;;;;;;5071047;28;20024;-84
2022/08/20 01:00:55;;;;;;;0.50;0.20;;;18.90;99.90;;;;;;5086889;28;20027;-84
2022/08/20 01:03:21;;;;;;;1.05;0.30;;;18.90;99.90;;;;;;5072816;28;20063;-84
2022/08/20 01:05:50;;;;;;;0.85;0.30;;;18.90;99.90;;;;;;5087094;28;20396;-84
2022/08/20 01:08:18;;;;;;;2.00;0.38;;;18.90;99.90;;;;;;5087353;28;20645;-84
2022/08/20 01:10:48;;;;;;;0.82;0.30;;;18.90;99.90;;;;;;5079016;28;20132;-84
2022/08/20 01:13:20;;;;;;;0.20;0.10;;;18.90;99.90;;;;;;5087094;28;20070;-84
2022/08/20 01:15:48;;;;;;;1.35;0.50;;;18.90;99.90;;;;;;5087064;28;20073;-84
2022/08/20 01:18:19;;;;;;;1.70;0.40;;;19.00;99.90;;;;;;5080011;28;20104;-85
2022/08/20 01:20:53;;;;;;;0.60;0.30;;;19.00;99.90;;;;;;5081341;28;20025;-83
2022/08/20 01:23:47;;;;;;;0.65;0.20;;;19.00;99.90;;;;;;5087171;28;20043;-84
2022/08/20 01:26:18;;;;;;;0.50;0.28;;;19.00;99.90;;;;;;5083759;28;20044;-84
2022/08/20 01:28:57;;;;;;;1.02;0.40;;;19.00;99.90;;;;;;5087211;28;20028;-84
2022/08/20 01:31:32;;;;;;;1.60;0.30;;;18.90;99.90;;;;;;5075758;28;20523;-84
2022/08/20 01:33:59;;;;;;;1.20;0.30;;;19.10;99.90;;;;;;5069479;28;20016;-83
2022/08/20 01:36:51;;;;;;;0.43;0.20;;;18.90;99.90;;;;;;5083650;28;20048;-83
2022/08/20 01:39:24;;;;;;;0.98;0.30;;;18.90;99.90;;;;;;5082679;28;20025;-83
2022/08/20 01:42:25;;;;;;;0.85;0.30;;;18.90;99.90;;;;;;5057794;28;20016;-84
2022/08/20 01:44:51;;;;;;;0.45;0.20;;;18.90;99.90;;;;;;5059003;28;20029;-84
2022/08/20 01:47:24;;;;;;;0.25;0.15;;;18.90;99.90;;;;;;5067526;28;20029;-84
2022/08/20 01:49:54;;;;;;;0.93;0.30;;;18.90;99.90;;;;;;5081960;28;20028;-84
2022/08/20 01:52:41;;;;;;;1.17;0.40;;;18.90;99.90;;;;;;5069758;28;20111;-84
2022/08/20 01:55:09;;;;;;;1.63;0.60;;;19.00;99.90;;;;;;5068268;28;20017;-84
2022/08/20 01:57:36;;;;;;;0.50;0.30;;;19.00;99.90;;;;;;5070342;28;20391;-84
2022/08/20 02:00:10;;;;;;;0.73;0.35;;;18.90;99.90;;;;;;5067234;28;20016;-84
2022/08/20 02:02:36;;;;;;;1.00;0.30;;;18.90;99.90;;;;;;5082195;28;20024;-84
2022/08/20 02:05:02;;;;;;;0.90;0.30;;;18.90;99.90;;;;;;5082358;28;20039;-84
2022/08/20 02:07:30;;;;;;;0.73;0.40;;;18.90;99.90;;;;;;5083807;28;20035;-84
2022/08/20 02:09:55;;;;;;;1.13;0.40;;;19.00;99.90;;;;;;5077137;28;20172;-85
2022/08/20 02:12:21;;;;;;;1.15;0.20;;;18.90;99.90;;;;;;5083632;28;20028;-83
2022/08/20 02:14:52;;;;;;;1.42;0.40;;;18.90;99.90;;;;;;5081519;28;20030;-84
2022/08/20 02:17:21;;;;;;;0.98;0.40;;;18.90;99.90;;;;;;5082422;28;20104;-82
2022/08/20 02:19:51;;;;;;;1.45;0.63;;;18.90;99.90;;;;;;5076883;28;20013;-83
2022/08/20 02:22:20;;;;;;;0.93;0.50;;;18.80;99.90;;;;;;5069503;28;20036;-83
2022/08/20 02:24:46;;;;;;;1.00;0.40;;;18.80;99.90;;;;;;5082826;28;20024;-83
2022/08/20 02:27:12;;;;;;;0.77;0.32;;;18.80;99.90;;;;;;5071150;28;20546;-84
2022/08/20 02:29:38;;;;;;;0.80;0.30;;;18.80;99.90;;;;;;5070917;28;20025;-84
2022/08/20 02:32:05;;;;;;;0.93;0.30;;;18.80;99.90;;;;;;5075987;28;20139;-84
2022/08/20 02:34:33;;;;;;;1.13;0.30;;;18.80;99.90;;;;;;5072521;28;20384;-84
2022/08/20 02:36:59;;;;;;;1.05;0.40;;;18.80;99.90;;;;;;5066724;28;20040;-84
2022/08/20 02:39:25;;;;;;;1.17;0.40;;;18.80;99.90;;;;;;5070109;28;20016;-84
2022/08/20 02:41:51;;;;;;;0.60;0.30;;;18.80;99.90;;;;;;5074312;28;20020;-84
2022/08/20 02:44:19;;;;;;;0.73;0.50;;;18.80;99.90;;;;;;5082680;28;20028;-84
2022/08/20 02:46:45;;;;;;;1.23;0.50;;;18.70;99.90;;;;;;5063799;28;20054;-83
2022/08/20 02:49:11;;;;;;;1.00;0.40;;;18.70;99.90;;;;;;5071738;28;20021;-84
2022/08/20 02:51:36;;;;;;;0.60;0.30;;;18.70;99.90;;;;;;5074734;28;20025;-84
2022/08/20 02:54:02;;;;;;;1.30;0.52;;;18.70;99.90;;;;;;5075091;28;20056;-83
2022/08/20 02:56:28;;;;;;;1.30;0.40;;;18.70;99.90;;;;;;5082494;28;20021;-84
2022/08/20 02:58:54;;;;;;;0.77;0.30;;;18.70;99.90;;;;;;5065708;28;20020;-83
2022/08/20 03:01:19;;;;;;;1.77;0.55;;;18.70;99.90;;;;;;5081068;28;20495;-83
2022/08/20 03:03:45;;;;;;;1.90;0.43;;;18.70;99.90;;;;;;5074543;28;20105;-83
2022/08/20 03:06:12;;;;;;;1.58;0.60;;;18.70;99.90;;;;;;5073771;28;20020;-83
2022/08/20 03:08:38;;;;;;;2.00;0.40;;;18.60;99.90;;;;;;5069457;28;20021;-83
2022/08/20 03:11:04;;;;;;;0.90;0.40;;;18.60;99.90;;;;;;5066459;28;20009;-84
2022/08/20 03:13:30;;;;;;;0.65;0.35;;;18.60;99.90;;;;;;5064547;28;20028;-83
2022/08/20 03:15:58;;;;;;;1.58;0.43;;;18.60;99.90;;;;;;5072821;28;20020;-84
2022/08/20 03:18:26;;;;;;;0.88;0.40;;;18.50;99.90;;;;;;5081081;28;20044;-84
2022/08/20 03:20:52;;;;;;;0.75;0.32;;;18.50;99.90;;;;;;5071974;28;20017;-84
2022/08/20 03:23:20;;;;;;;0.95;0.40;;;18.40;99.90;;;;;;5073088;28;20028;-83
2022/08/20 03:25:46;;;;;;;1.20;0.45;;;18.40;99.90;;;;;;5080812;28;20017;-83
2022/08/20 03:28:13;;;;;;;0.77;0.30;;;18.40;99.90;;;;;;5071363;28;20032;-84
2022/08/20 03:30:39;;;;;;;1.25;0.47;;;18.40;99.90;;;;;;5078754;28;20029;-84
2022/08/20 03:33:06;;;;;;;1.75;0.43;;;18.40;99.90;;;;;;5069304;28;20033;-83
2022/08/20 03:35:32;;;;;;;0.80;0.40;;;18.40;99.90;;;;;;5086715;28;20021;-83
2022/08/20 03:37:59;;;;;;;1.80;0.47;;;18.30;99.90;;;;;;5085232;28;20066;-84
2022/08/20 03:40:28;;;;;;;0.77;0.40;;;18.30;99.90;;;;;;5086878;28;20025;-83
2022/08/20 03:42:54;;;;;;;1.10;0.45;;;18.30;99.90;;;;;;5076410;28;20107;-84
2022/08/20 03:45:21;;;;;;;1.30;0.32;;;18.30;99.90;;;;;;5079521;28;20086;-83
2022/08/20 03:47:48;;;;;;;0.77;0.30;;;18.20;99.90;;;;;;5072900;28;20047;-84
2022/08/20 03:50:14;;;;;;;1.75;0.55;;;18.20;99.90;;;;;;5086831;28;20024;-83
2022/08/20 03:52:40;;;;;;;0.70;0.30;;;18.20;99.90;;;;;;5079613;28;20067;-83
2022/08/20 03:55:08;;;;;;;1.25;0.47;;;18.20;99.90;;;;;;5084623;28;20031;-83
2022/08/20 03:57:34;;;;;;;0.93;0.40;;;18.10;99.90;;;;;;5084074;28;20025;-84
2022/08/20 04:00:01;;;;;;;0.88;0.40;;;18.20;99.90;;;;;;5077220;28;20025;-84
2022/08/20 04:02:27;;;;;;;0.90;0.35;;;18.20;99.90;;;;;;5064259;28;20043;-84
2022/08/20 04:04:53;;;;;;;1.02;0.40;;;18.20;99.90;;;;;;5122606;22;20135;-84
2022/08/20 04:07:26;;;;;;;0.93;0.52;;;18.20;99.90;;;;;;5075160;28;20017;-85
2022/08/20 04:09:55;;;;;;;0.60;0.30;;;18.20;99.90;;;;;;5071435;28;20096;-85
2022/08/20 04:12:22;;;;;;;1.23;0.50;;;18.20;99.90;;;;;;5073376;28;20032;-85
2022/08/20 04:14:49;;;;;;;1.23;0.50;;;18.20;99.90;;;;;;5065019;28;20083;-85
2022/08/20 04:17:17;;;;;;;1.25;0.50;;;18.20;99.90;;;;;;5066436;28;20032;-85
2022/08/20 04:19:43;;;;;;;0.90;0.50;;;18.20;99.90;;;;;;5096423;22;20077;-81
2022/08/20 04:22:12;;;;;;;1.27;0.40;;;18.20;99.90;;;;;;5065802;28;20017;-81
2022/08/20 04:24:39;;;;;;;1.60;0.50;;;18.20;99.90;;;;;;5051025;28;20025;-83
2022/08/20 04:27:07;;;;;;;1.52;0.57;;;18.20;99.90;;;;;;5065632;28;20025;-83
2022/08/20 04:29:34;;;;;;;2.13;0.70;;;18.30;99.90;;;;;;5073564;28;20025;-83
2022/08/20 04:32:01;;;;;;;1.10;0.45;;;18.40;99.90;;;;;;5059652;28;20036;-83
2022/08/20 04:34:28;;;;;;;2.83;0.60;;;18.30;99.90;;;;;;5055895;28;20021;-82
2022/08/20 04:36:54;;;;;;;1.80;0.68;;;18.30;99.90;;;;;;5066059;28;20044;-83
2022/08/20 04:39:19;;;;;;;1.33;0.50;;;18.30;99.90;;;;;;5065633;28;20103;-80
2022/08/20 04:41:45;;;;;;;3.47;0.73;;;18.40;99.90;;;;;;5053154;28;20028;-82
2022/08/20 04:44:11;;;;;;;0.88;0.40;;;18.40;99.90;;;;;;5050836;28;20018;-83
2022/08/20 04:46:38;;;;;;;1.23;0.43;;;18.40;99.90;;;;;;5066106;28;20017;-84
2022/08/20 04:49:05;;;;;;;1.13;0.50;;;18.40;99.90;;;;;;5065015;28;20051;-83
2022/08/20 04:51:32;;;;;;;2.33;0.40;;;18.40;99.90;;;;;;5056479;28;20029;-83
2022/08/20 04:53:58;;;;;;;0.98;0.52;;;18.40;99.90;;;;;;5053042;28;20013;-83
2022/08/20 04:56:26;;;;;;;0.95;0.55;;;18.40;99.90;;;;;;5057824;28;20021;-82
2022/08/20 04:58:54;;;;;;;1.08;0.60;;;18.50;99.90;;;;;;5048527;28;20097;-83
2022/08/20 05:01:22;;;;;;;2.17;0.70;;;18.40;99.90;;;;;;5065107;28;20096;-82
2022/08/20 05:03:48;;;;;;;0.85;0.50;;;18.40;99.90;;;;;;5065570;28;20027;-82
2022/08/20 05:06:16;;;;;;;1.92;0.55;;;18.40;99.90;;;;;;5063714;28;20051;-83
2022/08/20 05:08:42;;;;;;;2.30;0.55;;;18.40;99.90;;;;;;5058616;28;20112;-82
2022/08/20 05:11:09;;;;;;;1.48;0.60;;;18.40;99.90;;;;;;5060628;28;20537;-82
2022/08/20 05:13:35;;;;;;;1.48;0.52;;;18.50;99.90;;;;;;5057843;28;20029;-83
2022/08/20 05:16:02;;;;;;;1.13;0.60;;;18.50;99.90;;;;;;5051698;28;20025;-82
2022/08/20 05:18:31;;;;;;;0.95;0.40;;;18.40;99.90;;;;;;5061874;28;20021;-84
2022/08/20 05:21:04;;;;;;;1.95;0.77;;;18.50;99.90;;;;;;5048736;28;20026;-82
2022/08/20 05:23:30;;;;;;;1.10;0.50;;;18.50;99.90;;;;;;5059742;28;20039;-84
2022/08/20 05:25:56;;;;;;;1.58;0.70;;;18.50;99.90;;;;;;5062148;28;20017;-84
2022/08/20 05:28:31;;;;;;;1.70;0.68;;;18.40;99.90;;;;;;5050349;28;20020;-83
2022/08/20 05:31:01;;;;;;;1.38;0.70;;;18.50;99.90;;;;;;5057342;28;20017;-84
2022/08/20 05:33:28;;;;;;;1.45;0.73;;;18.40;99.90;;;;;;5062765;28;20040;-84
2022/08/20 05:35:55;;;;;;;2.38;0.70;;;18.40;99.90;;;;;;5047393;28;20022;-84
2022/08/20 05:38:25;;;;;;;1.33;0.60;;;18.40;99.90;;;;;;5063188;28;20025;-83
2022/08/20 05:40:51;;;;;;;1.27;0.60;;;18.40;99.90;;;;;;5065476;28;20029;-83
2022/08/20 05:43:18;;;;;;;1.35;0.70;;;18.40;99.90;;;;;;5071520;28;20021;-83
2022/08/20 05:45:46;;;;;;;2.13;0.80;;;18.40;99.90;;;;;;5045344;28;20024;-84
2022/08/20 05:48:17;;;;;;;1.38;0.55;;;18.50;99.90;;;;;;5050968;28;20367;-83
2022/08/20 05:50:44;;;;;;;;;;;18.40;99.90;;;;;;5047608;28;20021;-84
2022/08/20 05:53:10;;;;;;;1.55;0.80;;;18.50;99.90;;;;;;5052861;28;20429;-83
2022/08/20 05:55:36;;;;;;;1.75;0.60;;;18.50;99.90;;;;;;5045804;28;20114;-82
2022/08/20 05:58:04;;;;;;;1.65;0.65;;;18.50;99.90;;;;;;5045200;28;20025;-83
2022/08/20 06:00:32;;;;;;;1.20;0.57;;;18.50;99.90;;;;;;5062442;28;20071;-83
2022/08/20 06:05:42;;;;;;;1.80;0.50;;;18.60;99.90;;;;;;5061384;28;20048;-83
2022/08/20 06:08:10;;;;;;;2.20;0.70;;;18.70;99.90;;;;;;5062463;28;20109;-83
2022/08/20 06:10:37;;;;;;;3.03;0.80;;;18.80;99.90;;;;;;5055759;28;20624;-84
2022/08/20 06:13:03;;;;;;;1.55;0.68;;;18.80;99.90;;;;;;5052663;28;20473;-83
2022/08/20 06:15:30;;;;;;;2.05;0.52;;;18.90;99.90;;;;;;5063083;28;20052;-83
2022/08/20 06:17:56;;;;;;;2.35;0.90;;;19.00;99.90;;;;;;5075113;28;20078;-84
2022/08/20 06:20:21;;;;;;;1.45;0.75;;;19.10;99.90;;;;;;5056868;28;20032;-84
2022/08/20 06:22:47;;;;;;;2.40;0.85;;;19.20;99.90;;;;;;5045321;28;20374;-84
2022/08/20 06:25:13;;;;;;;1.20;0.70;;;19.30;99.90;;;;;;5051139;28;20021;-84
2022/08/20 06:27:40;;;;;;;1.17;0.57;;;19.40;99.90;;;;;;5061477;28;20032;-84
2022/08/20 06:30:11;;;;;;;1.10;0.50;;;19.50;99.90;;;;;;5062485;28;20044;-84
2022/08/20 06:32:37;;;;;;;1.08;0.52;;;19.50;99.90;;;;;;5055331;28;20024;-83
2022/08/20 06:35:05;;;;;;;1.77;0.65;;;19.50;99.90;;;;;;5043233;28;20052;-83
2022/08/20 06:37:35;;;;;;;1.40;0.60;;;19.60;99.90;;;;;;5052157;28;20025;-84
2022/08/20 06:40:15;;;;;;;2.15;0.70;;;19.50;99.90;;;;;;5062682;28;20021;-82
2022/08/20 06:42:44;;;;;;;1.92;0.70;;;19.50;99.90;;;;;;5046829;28;20543;-83
2022/08/20 06:45:16;;;;;;;1.45;0.95;;;19.50;99.90;;;;;;5061831;28;20017;-83
2022/08/20 06:47:43;;;;;;;2.00;1.00;;;19.50;99.90;;;;;;5061675;28;20036;-83
2022/08/20 06:50:12;;;;;;;4.00;0.80;;;19.40;99.90;;;;;;5060522;28;20049;-83
2022/08/20 06:52:39;;;;;;;2.10;0.80;;;19.50;99.90;;;;;;5055478;28;20206;-83
2022/08/20 06:55:06;;;;;;;3.95;1.05;;;19.60;99.90;;;;;;5051475;28;20066;-82
2022/08/20 06:57:33;;;;;;;1.65;0.93;;;19.70;99.90;;;;;;5054451;28;20029;-84
2022/08/20 06:59:59;;;;;;;2.55;1.25;;;19.80;99.90;;;;;;5051352;28;20024;-84
2022/08/20 07:02:24;;;;;;;2.28;0.95;;;19.80;99.90;;;;;;5061919;28;20047;-82
2022/08/20 07:04:50;;;;;;;2.53;0.80;;;19.90;99.90;;;;;;5032513;28;20031;-84
2022/08/20 07:07:19;;;;;;;2.58;1.00;;;20.00;99.90;;;;;;5061884;28;20036;-84
2022/08/20 07:09:45;;;;;;;1.65;0.93;;;20.10;99.90;;;;;;5056044;28;20032;-84
2022/08/20 07:12:12;;;;;;;2.20;0.98;;;20.10;99.90;;;;;;5061479;28;20029;-84
2022/08/20 07:14:37;;;;;;;2.05;0.88;;;20.10;99.90;;;;;;5060767;28;20043;-83
2022/08/20 07:17:04;;;;;;;2.20;0.82;;;20.20;99.90;;;;;;5046380;28;20021;-83
2022/08/20 07:19:30;;;;;;;1.73;0.90;;;20.20;99.90;;;;;;5060937;28;20059;-83
2022/08/20 07:21:56;;;;;;;2.42;0.98;;;20.20;99.90;;;;;;5060941;28;20025;-84
2022/08/20 07:24:21;;;;;;;2.72;0.98;;;20.30;99.90;;;;;;5042161;28;20029;-82
2022/08/20 07:26:50;;;;;;;2.75;1.05;;;20.30;99.90;;;;;;5053443;28;20398;-84
2022/08/20 07:29:17;;;;;;;2.28;0.80;;;20.30;99.90;;;;;;5060760;28;20025;-84
2022/08/20 07:34:29;;;;;;;1.83;0.80;;;20.40;99.90;;;;;;5060380;28;20071;-84
2022/08/20 07:36:59;;;;;;;2.22;0.90;;;20.50;99.90;;;;;;5059054;28;20025;-83
2022/08/20 07:39:24;;;;;;;4.05;0.80;;;20.50;99.90;;;;;;5057842;28;20017;-82
2022/08/20 07:42:02;;;;;;;2.38;0.90;;;20.60;99.90;;;;;;5054627;28;20039;-82
2022/08/20 07:44:29;;;;;;;1.77;0.90;;;20.60;99.90;;;;;;5049867;28;20025;-84
2022/08/20 07:46:57;;;;;;;1.48;0.75;;;20.60;99.90;;;;;;5057269;28;20040;-83
2022/08/20 07:49:22;;;;;;;2.05;0.70;;;20.70;99.90;;;;;;5035572;28;20021;-82
2022/08/20 07:51:48;;;;;;;1.80;0.77;;;20.80;99.90;;;;;;5052734;28;20032;-83
2022/08/20 07:54:13;;;;;;;2.03;0.82;;;20.80;99.90;;;;;;5059163;28;20097;-83
2022/08/20 07:56:39;;;;;;;1.77;0.82;;;20.90;99.90;;;;;;5052032;28;20401;-84
2022/08/20 07:59:05;;;;;;;2.10;0.88;;;21.00;99.90;;;;;;5058910;28;20025;-83
2022/08/20 08:01:31;;;;;;;2.50;0.90;;;21.00;99.90;;;;;;5059098;28;20024;-83
2022/08/20 08:03:58;;;;;;;2.45;0.73;;;21.30;99.90;;;;;;5057704;28;20037;-82
2022/08/20 08:06:26;;;;;;;2.45;1.10;;;21.40;99.90;;;;;;5051902;28;20032;-82
2022/08/20 08:08:52;;;;;;;2.90;0.98;;;21.60;99.90;;;;;;5043698;28;20151;-83
2022/08/20 08:11:18;;;;;;;2.13;0.88;;;21.80;99.90;;;;;;5057600;28;20466;-84
2022/08/20 08:13:45;;;;;;;1.85;0.70;;;21.70;99.90;;;;;;5050781;28;20036;-84
2022/08/20 08:16:10;;;;;;;2.17;0.73;;;21.80;99.90;;;;;;5059848;28;20495;-83
2022/08/20 08:18:40;;;;;;;3.40;0.70;;;21.90;99.90;;;;;;5062017;28;20096;-84
2022/08/20 08:21:07;;;;;;;3.25;0.82;;;21.80;99.90;;;;;;5060441;28;20077;-84
2022/08/20 08:23:33;;;;;;;1.95;0.98;;;21.80;99.90;;;;;;5061972;28;20036;-83
2022/08/20 08:25:59;;;;;;;2.92;1.00;;;22.00;99.90;;;;;;5061612;28;20020;-82
2022/08/20 08:28:27;;;;;;;2.45;0.88;;;22.00;99.90;;;;;;5046868;28;20028;-83
2022/08/20 08:30:52;;;;;;;2.42;0.90;;;21.90;99.90;;;;;;5060717;28;20017;-84
2022/08/20 08:33:27;;;;;;;2.47;0.82;;;21.90;99.90;;;;;;5062385;28;20397;-83
2022/08/20 08:36:02;;;;;;;1.42;0.60;;;22.10;99.90;;;;;;5049425;28;20397;-83
2022/08/20 08:38:29;;;;;;;2.40;1.00;;;22.10;99.90;;;;;;5057035;28;20398;-83
2022/08/20 08:41:11;;;;;;;1.40;0.80;;;22.40;99.90;;;;;;5050133;28;20021;-84
2022/08/20 08:43:36;;;;;;;;;;;22.50;99.90;;;;;;5064994;28;20021;-84
2022/08/20 08:46:09;;;;;;;2.17;0.90;;;22.40;99.90;;;;;;5063264;28;19939;-83
2022/08/20 08:48:42;;;;;;;2.63;1.10;;;22.40;99.90;;;;;;5068534;28;20091;-84
2022/08/20 08:51:10;;;;;;;1.73;0.82;;;22.30;99.90;;;;;;5062468;28;20013;-83
2022/08/20 08:54:04;;;;;;;3.28;0.90;;;22.60;99.90;;;;;;5049620;28;20067;-82
2022/08/20 08:56:30;;;;;;;1.88;0.82;;;22.90;99.90;;;;;;5052814;28;20084;-83
2022/08/20 08:59:09;;;;;;;1.75;0.80;;;23.40;99.90;;;;;;5061193;28;20013;-83
2022/08/20 09:01:44;;;;;;;1.80;0.80;;;23.60;99.90;;;;;;5061044;28;20494;-83
2022/08/20 09:04:12;;;;;;;2.08;0.80;;;23.70;99.90;;;;;;5061053;28;20048;-84
2022/08/20 09:06:39;;;;;;;1.17;0.60;;;23.40;99.90;;;;;;5040430;28;20048;-83
2022/08/20 09:09:11;;;;;;;1.13;0.60;;;23.40;99.90;;;;;;5064297;28;20013;-83
2022/08/20 09:11:49;;;;;;;3.40;0.77;;;23.30;99.90;;;;;;5062148;28;20100;-83
2022/08/20 09:14:15;;;;;;;2.65;0.65;;;23.30;99.90;;;;;;5061325;28;20013;-84
2022/08/20 09:16:40;;;;;;;2.33;1.00;;;23.20;99.90;;;;;;5042581;28;20016;-83
2022/08/20 09:19:06;;;;;;;2.50;1.00;;;23.20;99.90;;;;;;5051904;28;20021;-83
2022/08/20 09:21:32;;;;;;;1.77;0.90;;;23.00;99.90;;;;;;5061243;28;20024;-83
2022/08/20 09:23:57;;;;;;;1.83;0.80;;;23.00;99.90;;;;;;5046816;28;20014;-84
2022/08/20 09:26:23;;;;;;;2.00;0.65;;;22.90;99.90;;;;;;5045950;28;20029;-82
2022/08/20 09:28:49;;;;;;;1.80;0.68;;;22.90;99.90;;;;;;5061041;28;20389;-83
2022/08/20 09:31:14;;;;;;;1.98;0.98;;;22.80;99.90;;;;;;5060338;28;20071;-83
2022/08/20 09:33:40;;;;;;;1.20;0.50;;;22.70;99.90;;;;;;5056375;28;20036;-83
2022/08/20 09:36:06;;;;;;;1.38;0.68;;;22.60;99.90;;;;;;5044747;28;20111;-83
2022/08/20 09:38:31;;;;;;;1.90;0.90;;;22.50;99.90;;;;;;5049947;28;20025;-83
2022/08/20 09:40:57;;;;;;;2.08;0.80;;;22.40;99.90;;;;;;5046649;28;20367;-82
2022/08/20 09:43:23;;;;;;;2.17;1.08;;;22.40;99.90;;;;;;5058475;28;20719;-83
2022/08/20 09:45:48;;;;;;;2.60;0.95;;;22.50;99.90;;;;;;5060817;28;20028;-83
2022/08/20 09:48:14;;;;;;;1.17;0.60;;;22.60;99.90;;;;;;5060588;28;20508;-83
2022/08/20 09:50:44;;;;;;;1.67;0.77;;;22.60;99.90;;;;;;5061027;28;20017;-83
2022/08/20 09:53:10;;;;;;;1.37;0.40;;;22.60;99.90;;;;;;5062303;28;20029;-84
2022/08/20 09:55:38;;;;;;;0.90;0.40;;;22.60;99.90;;;;;;5057136;28;20761;-82
2022/08/20 09:58:40;;;;;;;0.75;0.32;;;22.80;99.90;;;;;;5058405;28;20109;-82
2022/08/20 10:01:09;;;;;;;0.98;0.40;;;22.90;99.90;;;;;;5059519;28;20021;-83
2022/08/20 10:03:35;;;;;;;1.23;0.32;;;23.10;99.90;;;;;;5042255;28;20483;-84
2022/08/20 10:06:01;;;;;;;0.73;0.30;;;23.00;99.90;;;;;;5058217;28;20104;-83
2022/08/20 10:08:27;;;;;;;1.17;0.30;;;23.30;99.90;;;;;;5058740;28;20381;-83
2022/08/20 10:10:53;;;;;;;1.50;0.40;;;23.60;99.90;;;;;;5057747;28;20029;-82
2022/08/20 10:13:18;;;;;;;1.15;0.35;;;23.70;99.90;;;;;;5050035;28;20028;-83
2022/08/20 10:15:44;;;;;;;1.73;0.55;;;23.80;99.90;;;;;;5048174;28;20029;-84
2022/08/20 10:18:10;;;;;;;0.47;0.30;;;23.70;99.90;;;;;;5058165;28;20402;-84
2022/08/20 10:20:38;;;;;;;0.75;0.30;;;23.70;99.90;;;;;;5069024;23;20044;-87
2022/08/20 10:23:04;;;;;;;0.52;0.28;;;23.70;99.90;;;;;;5070476;28;20024;-87
2022/08/20 10:25:31;;;;;;;1.30;0.43;;;23.50;99.90;;;;;;5070358;28;20056;-87
2022/08/20 10:27:57;;;;;;;0.80;0.20;;;23.40;99.90;;;;;;5071189;28;20078;-87
2022/08/20 10:30:23;;;;;;;0.77;0.30;;;23.30;99.90;;;;;;5070318;28;20550;-88
2022/08/20 10:32:52;;;;;;;1.23;0.35;;;23.70;99.90;;;;;;5066049;28;20025;-87
2022/08/20 10:35:18;;;;;;;0.68;0.30;;;24.20;99.90;;;;;;5069364;28;20052;-87
2022/08/20 10:37:44;;;;;;;0.85;0.30;;;24.40;99.90;;;;;;5063731;28;20055;-88
2022/08/20 10:40:11;;;;;;;1.05;0.40;;;24.20;99.90;;;;;;5071596;28;20019;-86
2022/08/20 10:42:37;;;;;;;0.82;0.40;;;23.90;99.90;;;;;;5066570;28;20120;-86
2022/08/20 10:45:03;;;;;;;0.90;0.40;;;23.80;99.90;;;;;;5064578;28;20112;-86
2022/08/20 10:47:31;;;;;;;1.00;0.38;;;23.60;99.90;;;;;;5061790;28;20031;-85
2022/08/20 10:50:01;;;;;;;1.52;0.30;;;23.60;99.90;;;;;;5060545;28;20025;-87
2022/08/20 10:52:27;;;;;;;0.88;0.20;;;23.50;99.90;;;;;;5058015;28;20021;-86
2022/08/20 10:54:53;;;;;;;0.25;0.10;;;23.20;99.90;;;;;;5070633;28;20030;-86
2022/08/20 10:57:22;;;;;;;0.10;0.10;;;23.00;99.90;;;;;;5065135;28;20025;-86
2022/08/20 10:59:50;;;;;;;0.10;0.00;;;22.90;99.90;;;;;;5057104;28;20021;-86
2022/08/20 11:02:17;;;;;;;0.17;0.10;;;22.90;99.90;;;;;;5066918;28;20037;-86
2022/08/20 11:04:42;;;;;;;0.38;0.10;;;22.60;99.90;;;;;;5076515;28;20028;-86
2022/08/20 11:07:29;;;;;;;0.32;0.10;;;22.50;99.90;;;;;;5065730;28;20028;-86
2022/08/20 11:09:56;;;;;;;0.30;0.00;;;22.40;99.90;;;;;;5072679;28;20093;-86
2022/08/20 11:12:22;;;;;;;0.47;0.20;;;22.40;99.90;;;;;;5068366;28;20055;-86
2022/08/20 11:14:49;;;;;;;0.30;0.08;;;22.30;99.90;;;;;;5061525;28;20048;-87
2022/08/20 11:17:23;;;;;;;0.13;0.10;;;22.40;99.90;;;;;;5069135;28;20017;-86
2022/08/20 11:19:49;;;;;;;0.10;0.10;;;22.40;99.90;;;;;;5068490;28;20476;-87
2022/08/20 11:22:15;;;;;;;0.63;0.13;;;22.50;99.90;;;;;;5069686;28;20119;-87
2022/08/20 11:24:41;;;;;;;0.65;0.20;;;22.50;99.90;;;;;;5062675;28;20530;-86
2022/08/20 11:27:08;;;;;;;0.43;0.17;;;22.50;99.90;;;;;;5057614;28;20180;-86
2022/08/20 11:29:35;;;;;;;0.10;0.10;;;22.60;99.90;;;;;;5064947;28;20021;-86
2022/08/20 11:32:01;;;;;;;0.38;0.10;;;22.70;99.90;;;;;;5065933;28;20029;-86
2022/08/20 11:34:26;;;;;;;0.17;0.10;;;22.80;99.90;;;;;;5069454;28;20017;-87
2022/08/20 11:36:52;;;;;;;0.10;0.10;;;22.90;99.90;;;;;;5063824;28;20023;-86
2022/08/20 11:39:18;;;;;;;0.22;0.10;;;22.80;99.90;;;;;;5076588;28;20024;-86
2022/08/20 11:41:44;;;;;;;0.30;0.10;;;22.80;99.90;;;;;;5065556;28;20036;-87
2022/08/20 11:44:10;;;;;;;0.30;0.10;;;22.80;99.90;;;;;;5064532;28;20108;-86
2022/08/20 11:46:35;;;;;;;0.25;0.00;;;22.80;99.90;;;;;;5062681;28;20055;-88
2022/08/20 11:49:01;;;;;;;0.80;0.10;;;22.70;99.90;;;;;;5068783;28;20036;-86
2022/08/20 11:51:27;;;;;;;0.30;0.10;;;22.70;99.90;;;;;;5071028;28;20025;-87
2022/08/20 11:53:53;;;;;;;0.22;0.10;;;22.60;99.90;;;;;;5073249;28;20511;-86
2022/08/20 11:56:19;;;;;;;0.20;0.00;;;22.50;99.90;;;;;;5071616;28;20020;-86
2022/08/20 11:58:45;;;;;;;0.20;0.10;;;22.50;99.90;;;;;;5083007;28;20029;-86
2022/08/20 12:01:11;;;;;;;0.10;0.08;;;22.40;99.90;;;;;;5077404;28;20078;-86
2022/08/20 12:03:37;;;;;;;0.30;0.10;;;22.40;99.90;;;;;;5079400;28;20032;-87
2022/08/20 12:06:02;;;;;;;0.25;0.10;;;22.40;99.90;;;;;;5067970;28;20779;-86
2022/08/20 12:08:28;;;;;;;0.20;0.03;;;22.40;99.90;;;;;;5055996;28;20028;-87
2022/08/20 12:10:56;;;;;;;0.55;0.20;;;22.50;99.90;;;;;;5069055;28;20021;-86
2022/08/20 12:13:22;;;;;;;0.38;0.20;;;22.60;99.90;;;;;;5062359;28;20029;-86
2022/08/20 12:15:49;;;;;;;0.43;0.10;;;22.60;99.90;;;;;;5068970;28;20025;-86
2022/08/20 12:18:15;;;;;;;0.10;0.10;;;22.70;99.90;;;;;;5065649;28;20084;-87
2022/08/20 12:20:40;;;;;;;0.20;0.10;;;22.70;99.90;;;;;;5058722;28;20040;-84
2022/08/20 12:23:06;;;;;;;0.10;0.08;;;22.70;99.90;;;;;;5071742;28;20028;-86
2022/08/20 12:25:32;;;;;;;0.15;0.10;;;22.60;99.90;;;;;;5064124;28;20481;-86
2022/08/20 12:27:59;;;;;;;0.15;0.10;;;22.60;99.90;;;;;;5066637;28;20028;-86
2022/08/20 12:30:24;;;;;;;0.20;0.10;;;22.70;99.90;;;;;;5072183;28;20025;-84
2022/08/20 12:32:50;;;;;;;0.05;0.05;;;22.80;99.90;;;;;;5072156;28;20107;-86
2022/08/20 12:35:17;;;;;;;0.60;0.55;;;22.80;99.90;;;;;;5073200;28;20095;-87
2022/08/20 12:37:44;;;;;;;0.30;0.10;;;22.90;99.90;;;;;;5063007;28;20043;-86
2022/08/20 12:40:16;;;;;;;0.22;0.10;;;23.00;99.90;;;;;;5067105;28;20078;-85
2022/08/20 12:42:42;;;;;;;0.10;0.10;;;23.10;99.90;;;;;;5065060;28;20028;-86
2022/08/20 12:45:09;;;;;;;0.40;0.17;;;23.20;99.90;;;;;;5066050;28;20021;-86
2022/08/20 12:47:37;;;;;;;0.38;0.17;;;23.50;99.90;;;;;;5070504;28;20021;-87
2022/08/20 12:50:09;;;;;;;0.40;0.10;;;23.60;99.90;;;;;;5065385;28;20032;-86
2022/08/20 12:52:35;;;;;;;0.45;0.15;;;23.80;99.90;;;;;;5068465;28;20021;-86
2022/08/20 12:55:01;;;;;;;0.20;0.10;;;23.90;99.90;;;;;;5071184;28;20023;-85
2022/08/20 12:57:33;;;;;;;0.20;0.10;;;23.80;99.90;;;;;;5065561;28;20020;-86